Guangzhou, China
Current Conditions -  °F | °C
As of 2:00 PM on Saturday 25 Oct 2014 (Local Time) from ZGGG Reporting Station
Few Clouds Few Clouds  
Wind Chill: 84°   Ceiling: Unl
Heat Index: 86°   Visibility: 4mi
Dew Point: 66°   Wind: 2mph
Humidity: 55%   Direction: NA
Pressure: 30"   Gusts: NA
Location:  23.12°N, 113.25°E
Report Text: ZGGG 250600Z VRB01MPS 6000 FEW033 29/19 Q1016 NOSIG
Loading
Personal Weather Stations






























Interactive Weather Map
Tropical Storm Tracking
New forecast layout! Learn more

10-Day Weather Forecast

Advertisements
Track Severe Weather on mobile